createdAt,value
2023-01-29T00:02:05.787Z,-3.95
2023-01-29T00:05:27.092Z,-3.93
2023-01-29T00:08:36.097Z,-4.01
2023-01-29T00:11:43.500Z,-4.17
2023-01-29T00:14:52.345Z,-4.18
2023-01-29T00:17:58.872Z,-4.14
2023-01-29T00:21:04.630Z,-4.15
2023-01-29T00:24:14.909Z,-4.13
2023-01-29T00:27:20.738Z,-4.03
2023-01-29T00:30:37.708Z,-4.11
2023-01-29T00:33:51.551Z,-4.03
2023-01-29T00:37:09.153Z,-4.06
2023-01-29T00:40:16.813Z,-4.05
2023-01-29T00:43:36.339Z,-4.11
2023-01-29T00:46:44.961Z,-4.28
2023-01-29T00:49:51.668Z,-4.35
2023-01-29T00:52:57.504Z,-4.35
2023-01-29T00:56:04.158Z,-4.51
2023-01-29T00:59:10.030Z,-4.22
2023-01-29T01:02:32.404Z,-4.35
2023-01-29T01:05:39.379Z,-4.26
2023-01-29T01:08:58.519Z,-4.35
2023-01-29T01:12:06.394Z,-4.48
2023-01-29T01:15:14.055Z,-4.58
2023-01-29T01:18:23.471Z,-4.58
2023-01-29T01:21:30.216Z,-4.57
2023-01-29T01:24:39.232Z,-4.62
2023-01-29T01:27:45.876Z,-4.55
2023-01-29T01:30:51.715Z,-4.64
2023-01-29T01:34:01.083Z,-4.63
2023-01-29T01:37:07.932Z,-4.54
2023-01-29T01:40:22.926Z,-4.66
2023-01-29T01:43:30.158Z,-4.71
2023-01-29T01:46:41.029Z,-4.69
2023-01-29T01:49:51.091Z,-4.64
2023-01-29T01:53:09.589Z,-4.57
2023-01-29T01:56:24.376Z,-4.60
2023-01-29T01:59:31.113Z,-4.47
2023-01-29T02:02:49.432Z,-4.55
2023-01-29T02:06:22.783Z,-4.50
2023-01-29T02:09:39.040Z,-4.55
2023-01-29T02:12:49.350Z,-4.72
2023-01-29T02:15:55.109Z,-4.81
2023-01-29T02:19:03.773Z,-4.87
2023-01-29T02:22:56.653Z,-4.88
2023-01-29T02:26:37.453Z,-4.83
2023-01-29T02:30:06.826Z,-4.93
2023-01-29T02:33:33.238Z,-5.04
2023-01-29T02:36:53.529Z,-5.02
2023-01-29T02:40:14.981Z,-5.08
2023-01-29T02:43:41.035Z,-5.04
2023-01-29T02:47:01.549Z,-5.09
2023-01-29T02:50:22.784Z,-5.02
2023-01-29T02:53:39.383Z,-5.01
2023-01-29T02:56:56.986Z,-5.09
2023-01-29T03:00:12.464Z,-5.10
2023-01-29T03:03:31.610Z,-5.12
2023-01-29T03:06:46.194Z,-5.20
2023-01-29T03:09:58.709Z,-5.07
2023-01-29T03:13:15.745Z,-4.98
2023-01-29T03:16:34.197Z,-4.96
2023-01-29T03:19:50.194Z,-4.92
2023-01-29T03:23:13.569Z,-4.78
2023-01-29T03:26:38.232Z,-5.00
2023-01-29T03:30:11.696Z,-5.19
2023-01-29T03:33:42.310Z,-5.20
2023-01-29T03:37:01.486Z,-5.20
2023-01-29T03:40:11.496Z,-5.15
2023-01-29T03:43:36.449Z,-5.00
2023-01-29T03:46:53.630Z,-5.09
2023-01-29T03:50:10.376Z,-5.42
2023-01-29T03:53:33.004Z,-5.50
2023-01-29T03:56:58.463Z,-5.35
2023-01-29T04:00:15.327Z,-5.56
2023-01-29T04:03:53.040Z,-5.41
2023-01-29T04:07:14.546Z,-5.45
2023-01-29T04:10:31.595Z,-5.39
2023-01-29T04:13:39.155Z,-5.45
2023-01-29T04:16:55.249Z,-5.49
2023-01-29T04:20:12.314Z,-5.54
2023-01-29T04:23:27.016Z,-5.54
2023-01-29T04:27:01.008Z,-5.40
2023-01-29T04:30:29.124Z,-5.31
2023-01-29T04:33:47.776Z,-5.14
2023-01-29T04:37:11.310Z,-5.14
2023-01-29T04:40:33.343Z,-4.98
2023-01-29T04:43:58.958Z,-5.00
2023-01-29T04:47:27.825Z,-4.86
2023-01-29T04:50:43.544Z,-4.87
2023-01-29T04:54:02.787Z,-4.88
2023-01-29T04:57:25.726Z,-5.01
2023-01-29T05:00:41.429Z,-4.90
2023-01-29T05:03:55.264Z,-4.79
2023-01-29T05:07:09.163Z,-4.74
2023-01-29T05:10:22.770Z,-4.69
2023-01-29T05:13:34.523Z,-4.65
2023-01-29T05:16:50.608Z,-4.64
2023-01-29T05:19:58.361Z,-4.82
2023-01-29T05:23:05.273Z,-4.73
2023-01-29T05:26:11.101Z,-4.71
2023-01-29T05:29:15.179Z,-4.65
2023-01-29T05:32:23.512Z,-4.65
2023-01-29T05:35:30.781Z,-4.71
2023-01-29T05:38:36.546Z,-4.52
2023-01-29T05:41:43.440Z,-4.65
2023-01-29T05:44:49.239Z,-4.57
2023-01-29T05:48:03.349Z,-4.53
2023-01-29T05:51:09.381Z,-4.83
2023-01-29T05:54:16.356Z,-4.77
2023-01-29T05:57:22.371Z,-4.64
2023-01-29T06:00:29.522Z,-4.53
2023-01-29T06:03:38.095Z,-4.50
2023-01-29T06:06:44.661Z,-4.66
2023-01-29T06:09:50.528Z,-4.65
2023-01-29T06:13:12.735Z,-4.53
2023-01-29T06:16:22.404Z,-4.50
2023-01-29T06:19:31.582Z,-4.40
2023-01-29T06:22:38.005Z,-4.36
2023-01-29T06:25:44.634Z,-4.46
2023-01-29T06:28:53.537Z,-4.53
2023-01-29T06:32:00.362Z,-4.49
2023-01-29T06:35:10.442Z,-4.50
2023-01-29T06:38:17.055Z,-4.48
2023-01-29T06:41:25.826Z,-4.50
2023-01-29T06:44:32.476Z,-4.64
2023-01-29T06:47:38.260Z,-4.48
2023-01-29T06:50:47.743Z,-4.48
2023-01-29T06:53:58.816Z,-4.26
2023-01-29T06:57:05.454Z,-4.40
2023-01-29T07:00:13.717Z,-4.58
2023-01-29T07:03:20.677Z,-4.44
2023-01-29T07:06:40.745Z,-4.43
2023-01-29T07:09:50.189Z,-4.31
2023-01-29T07:12:58.895Z,-4.40
2023-01-29T07:16:10.764Z,-4.49
2023-01-29T07:19:16.768Z,-4.45
2023-01-29T07:22:26.047Z,-4.47
2023-01-29T07:25:31.828Z,-4.54
2023-01-29T07:28:41.393Z,-4.55
2023-01-29T07:31:47.319Z,-4.58
2023-01-29T07:34:53.935Z,-4.71
2023-01-29T07:38:02.289Z,-4.72
2023-01-29T07:41:09.307Z,-4.65
2023-01-29T07:44:16.197Z,-4.52
2023-01-29T07:47:22.873Z,-4.63
2023-01-29T07:50:30.493Z,-4.81
2023-01-29T07:53:39.876Z,-4.68
2023-01-29T07:56:45.629Z,-4.78
2023-01-29T07:59:52.313Z,-4.86
2023-01-29T08:03:06.992Z,-5.03
2023-01-29T08:06:14.296Z,-5.02
2023-01-29T08:09:22.725Z,-4.90
2023-01-29T08:12:29.387Z,-4.90
2023-01-29T08:19:05.291Z,-4.51
2023-01-29T08:22:11.137Z,-4.49
2023-01-29T08:25:20.535Z,-4.54
2023-01-29T08:28:26.336Z,-4.49
2023-01-29T08:31:35.889Z,-4.26
2023-01-29T08:34:41.701Z,-4.45
2023-01-29T08:37:55.088Z,-4.36
2023-01-29T08:41:05.037Z,-4.58
2023-01-29T08:44:12.153Z,-4.36
2023-01-29T08:47:18.259Z,-4.28
2023-01-29T08:50:27.228Z,-4.48
2023-01-29T08:53:33.217Z,-4.45
2023-01-29T08:56:42.546Z,-4.32
2023-01-29T08:59:48.452Z,-4.28
2023-01-29T09:02:55.804Z,-4.24
2023-01-29T09:06:01.587Z,-4.01
2023-01-29T09:09:08.822Z,-3.44
2023-01-29T09:12:19.711Z,-3.36
2023-01-29T09:15:26.949Z,-3.56
2023-01-29T09:18:34.241Z,-3.68
2023-01-29T09:21:40.832Z,-3.79
2023-01-29T09:24:46.736Z,-3.76
2023-01-29T09:27:57.708Z,-3.59
2023-01-29T09:31:05.408Z,-3.31
2023-01-29T09:34:12.167Z,-3.34
2023-01-29T09:37:19.642Z,-3.26
2023-01-29T09:40:35.752Z,-3.62
2023-01-29T09:43:55.002Z,-3.66
2023-01-29T09:47:08.025Z,-3.73
2023-01-29T09:50:29.404Z,-3.50
2023-01-29T09:53:49.721Z,-3.42
2023-01-29T09:57:06.771Z,-3.58
2023-01-29T10:00:41.600Z,-3.70
2023-01-29T10:04:47.321Z,-3.71
2023-01-29T10:08:39.422Z,-3.69
2023-01-29T10:12:03.511Z,-3.65
2023-01-29T10:15:32.018Z,-3.63
2023-01-29T10:19:27.457Z,-3.64
2023-01-29T10:22:59.999Z,-3.79
2023-01-29T10:26:16.585Z,-3.76
2023-01-29T10:29:39.250Z,-3.85
2023-01-29T10:32:44.972Z,-3.75
2023-01-29T10:36:04.656Z,-3.74
2023-01-29T10:39:21.536Z,-3.68
2023-01-29T10:42:43.289Z,-3.89
2023-01-29T10:46:07.955Z,-3.68
2023-01-29T10:49:39.841Z,-3.84
2023-01-29T10:53:23.795Z,-3.76
2023-01-29T10:56:57.647Z,-3.82
2023-01-29T11:00:16.608Z,-3.78
2023-01-29T11:03:30.628Z,-3.63
2023-01-29T11:06:39.424Z,-3.57
2023-01-29T11:10:05.135Z,-3.91
2023-01-29T11:13:20.375Z,-3.63
2023-01-29T11:16:34.578Z,-3.63
2023-01-29T11:19:47.982Z,-3.57
2023-01-29T11:22:59.556Z,-3.54
2023-01-29T11:26:20.951Z,-3.30
2023-01-29T11:29:42.193Z,-3.42
2023-01-29T11:32:52.838Z,-3.69
2023-01-29T11:35:59.523Z,-3.44
2023-01-29T11:39:27.714Z,-3.29
2023-01-29T11:42:36.935Z,-3.21
2023-01-29T11:45:44.001Z,-3.30
2023-01-29T11:48:59.274Z,-3.48
2023-01-29T11:52:15.049Z,-3.37
2023-01-29T11:55:33.091Z,-3.32
2023-01-29T11:58:50.742Z,-3.37
2023-01-29T12:01:59.629Z,-3.49
2023-01-29T12:05:18.570Z,-3.68
2023-01-29T12:08:28.356Z,-3.43
2023-01-29T12:11:38.584Z,-3.24
2023-01-29T12:14:48.954Z,-3.06
2023-01-29T12:18:17.123Z,-3.15
2023-01-29T12:21:37.803Z,-2.94
2023-01-29T12:24:55.888Z,-2.79
2023-01-29T12:28:18.430Z,-2.41
2023-01-29T12:31:42.358Z,-2.42
2023-01-29T12:34:56.964Z,-2.16
2023-01-29T12:38:19.683Z,-1.87
2023-01-29T12:41:45.746Z,-1.97
2023-01-29T12:45:00.820Z,-2.15
2023-01-29T12:48:17.537Z,-2.32
2023-01-29T12:51:32.724Z,-2.13
2023-01-29T12:54:50.244Z,-1.84
2023-01-29T12:58:02.877Z,-1.60
2023-01-29T13:01:22.291Z,-1.98
2023-01-29T13:04:42.172Z,-1.55
2023-01-29T13:07:57.716Z,-1.63
2023-01-29T13:11:13.987Z,-1.81
2023-01-29T13:14:30.387Z,-1.87
2023-01-29T13:17:46.175Z,-1.71
2023-01-29T13:20:56.461Z,-2.07
2023-01-29T13:24:12.934Z,-2.19
2023-01-29T13:27:29.888Z,-2.42
2023-01-29T13:30:40.168Z,-2.53
2023-01-29T13:33:56.764Z,-2.63
2023-01-29T13:37:14.289Z,-2.87
2023-01-29T13:40:30.398Z,-2.82
2023-01-29T13:43:43.434Z,-2.42
2023-01-29T13:47:00.616Z,-2.32
2023-01-29T13:50:13.250Z,-2.55
2023-01-29T13:53:30.235Z,-2.91
2023-01-29T13:57:01.482Z,-2.87
2023-01-29T14:00:31.214Z,-2.98
2023-01-29T14:04:06.106Z,-2.87
2023-01-29T14:07:53.354Z,-2.90
2023-01-29T14:11:37.921Z,-2.79
2023-01-29T14:15:06.615Z,-2.76
2023-01-29T14:18:25.187Z,-2.85
2023-01-29T14:21:36.438Z,-2.98
2023-01-29T14:24:46.812Z,-3.06
2023-01-29T14:27:56.598Z,-3.19
2023-01-29T14:31:03.860Z,-3.33
2023-01-29T14:34:28.431Z,-3.28
2023-01-29T14:37:41.816Z,-3.53
2023-01-29T14:40:51.376Z,-3.59
2023-01-29T14:44:41.831Z,-3.72
2023-01-29T14:48:22.982Z,-3.75
2023-01-29T14:51:35.630Z,-3.81
2023-01-29T14:54:46.373Z,-3.93
2023-01-29T14:57:54.243Z,-3.93
2023-01-29T15:01:05.545Z,-3.92
2023-01-29T15:04:26.109Z,-3.99
2023-01-29T15:07:42.695Z,-4.01
2023-01-29T15:11:16.617Z,-4.11
2023-01-29T15:14:35.784Z,-4.02
2023-01-29T15:17:58.879Z,-3.99
2023-01-29T15:21:16.547Z,-3.99
2023-01-29T15:24:22.270Z,-4.30
2023-01-29T15:27:29.089Z,-4.40
2023-01-29T15:30:40.314Z,-4.48
2023-01-29T15:33:54.322Z,-4.57
2023-01-29T15:37:03.077Z,-4.59
2023-01-29T15:40:20.201Z,-4.55
2023-01-29T15:43:29.746Z,-4.57
2023-01-29T15:46:43.222Z,-4.50
2023-01-29T15:49:50.428Z,-4.60
2023-01-29T15:53:09.232Z,-4.71
2023-01-29T15:56:21.410Z,-4.71
2023-01-29T15:59:37.160Z,-4.78
2023-01-29T16:02:44.789Z,-4.60
2023-01-29T16:05:52.011Z,-4.48
2023-01-29T16:09:00.862Z,-4.57
2023-01-29T16:12:09.400Z,-4.48
2023-01-29T16:15:33.532Z,-4.43
2023-01-29T16:18:57.910Z,-4.50
2023-01-29T16:22:11.559Z,-4.54
2023-01-29T16:25:24.247Z,-4.70
2023-01-29T16:28:34.009Z,-4.72
2023-01-29T16:31:43.093Z,-4.71
2023-01-29T16:34:59.012Z,-4.79
2023-01-29T16:38:25.121Z,-4.70
2023-01-29T16:41:39.623Z,-4.63
2023-01-29T16:44:53.344Z,-4.59
2023-01-29T16:48:29.388Z,-4.57
2023-01-29T16:51:42.652Z,-4.50
2023-01-29T16:54:48.944Z,-4.68
2023-01-29T16:57:59.914Z,-4.67
2023-01-29T17:01:12.741Z,-4.67
2023-01-29T17:04:22.894Z,-4.70
2023-01-29T17:07:30.149Z,-4.66
2023-01-29T17:10:37.828Z,-4.54
2023-01-29T17:13:49.113Z,-4.59
2023-01-29T17:17:00.004Z,-4.62
2023-01-29T17:20:18.226Z,-4.70
2023-01-29T17:23:26.418Z,-4.50
2023-01-29T17:26:35.123Z,-4.36
2023-01-29T17:29:44.494Z,-4.29
2023-01-29T17:32:50.325Z,-4.50
2023-01-29T17:36:03.888Z,-4.46
2023-01-29T17:39:22.563Z,-4.69
2023-01-29T17:42:30.555Z,-4.55
2023-01-29T17:45:38.972Z,-4.62
2023-01-29T17:48:49.467Z,-4.73
2023-01-29T17:51:56.896Z,-4.76
2023-01-29T17:55:09.861Z,-4.94
2023-01-29T17:58:33.952Z,-4.95
2023-01-29T18:01:43.223Z,-4.89
2023-01-29T18:04:51.217Z,-4.90
2023-01-29T18:07:58.049Z,-4.82
2023-01-29T18:11:09.064Z,-4.96
2023-01-29T18:14:16.436Z,-5.03
2023-01-29T18:17:24.908Z,-5.01
2023-01-29T18:20:31.731Z,-4.97
2023-01-29T18:23:37.727Z,-4.90
2023-01-29T18:26:44.909Z,-5.08
2023-01-29T18:29:51.018Z,-4.99
2023-01-29T18:33:02.906Z,-4.89
2023-01-29T18:36:11.108Z,-4.79
2023-01-29T18:39:18.163Z,-4.84
2023-01-29T18:42:24.000Z,-4.85
2023-01-29T18:45:31.429Z,-4.83
2023-01-29T18:48:42.519Z,-4.84
2023-01-29T18:51:49.482Z,-4.76
2023-01-29T18:54:55.793Z,-4.80
2023-01-29T18:58:28.398Z,-4.69
2023-01-29T19:01:37.004Z,-4.57
2023-01-29T19:04:49.376Z,-4.58
2023-01-29T19:07:55.389Z,-4.72
2023-01-29T19:11:04.180Z,-4.96
2023-01-29T19:14:10.131Z,-5.00
2023-01-29T19:17:20.986Z,-5.20
2023-01-29T19:20:32.330Z,-5.15
2023-01-29T19:23:47.164Z,-5.09
2023-01-29T19:26:53.509Z,-5.03
2023-01-29T19:30:00.680Z,-4.90
2023-01-29T19:33:06.929Z,-4.92
2023-01-29T19:36:16.445Z,-4.82
2023-01-29T19:39:22.460Z,-4.80
2023-01-29T19:42:29.053Z,-4.79
2023-01-29T19:45:50.205Z,-4.93
2023-01-29T19:48:58.910Z,-4.88
2023-01-29T19:52:15.114Z,-5.05
2023-01-29T19:55:22.772Z,-5.05
2023-01-29T19:58:28.895Z,-5.07
2023-01-29T20:01:40.370Z,-5.03
2023-01-29T20:04:48.759Z,-5.05
2023-01-29T20:07:57.988Z,-5.11
2023-01-29T20:11:05.720Z,-5.09
2023-01-29T20:14:13.402Z,-5.03
2023-01-29T20:17:20.405Z,-4.93
2023-01-29T20:20:31.081Z,-4.93
2023-01-29T20:23:42.409Z,-4.99
2023-01-29T20:26:50.458Z,-4.94
2023-01-29T20:29:56.270Z,-4.82
2023-01-29T20:33:07.086Z,-4.82
2023-01-29T20:36:16.207Z,-4.74
2023-01-29T20:39:25.831Z,-4.86
2023-01-29T20:42:32.063Z,-4.71
2023-01-29T20:45:42.064Z,-4.67
2023-01-29T20:48:49.688Z,-4.79
2023-01-29T20:51:56.740Z,-4.73
2023-01-29T20:55:05.399Z,-4.64
2023-01-29T20:58:14.332Z,-4.84
2023-01-29T21:01:23.149Z,-4.78
2023-01-29T21:04:31.563Z,-4.99
2023-01-29T21:07:37.593Z,-5.02
2023-01-29T21:10:47.326Z,-4.97
2023-01-29T21:13:55.038Z,-5.06
2023-01-29T21:17:01.852Z,-5.02
2023-01-29T21:20:10.050Z,-5.11
2023-01-29T21:23:16.711Z,-5.06
2023-01-29T21:26:25.312Z,-5.17
2023-01-29T21:29:32.235Z,-5.17
2023-01-29T21:32:38.062Z,-5.31
2023-01-29T21:35:44.644Z,-5.41
2023-01-29T21:38:50.406Z,-5.46
2023-01-29T21:42:12.006Z,-5.50
2023-01-29T21:45:18.526Z,-5.56
2023-01-29T21:48:25.148Z,-5.61
2023-01-29T21:51:31.211Z,-5.66
2023-01-29T21:54:40.084Z,-5.67
2023-01-29T21:57:49.642Z,-5.70
2023-01-29T22:00:56.396Z,-5.70
2023-01-29T22:04:02.380Z,-5.69
2023-01-29T22:07:09.041Z,-5.71
2023-01-29T22:10:16.469Z,-5.79
2023-01-29T22:13:26.121Z,-5.68
2023-01-29T22:16:32.143Z,-5.72
2023-01-29T22:19:38.837Z,-5.64
2023-01-29T22:22:45.284Z,-5.60
2023-01-29T22:25:51.906Z,-5.50
2023-01-29T22:29:02.720Z,-5.52
2023-01-29T22:32:13.446Z,-5.60
2023-01-29T22:35:19.821Z,-5.64
2023-01-29T22:38:29.237Z,-5.69
2023-01-29T22:41:36.147Z,-5.81
2023-01-29T22:44:45.372Z,-5.64
2023-01-29T22:47:51.321Z,-5.68
2023-01-29T22:51:13.149Z,-5.67
2023-01-29T22:54:19.795Z,-5.65
2023-01-29T22:57:26.399Z,-5.76
2023-01-29T23:00:34.988Z,-5.81
2023-01-29T23:03:41.627Z,-5.80
2023-01-29T23:06:47.397Z,-5.62
2023-01-29T23:09:54.003Z,-5.56
2023-01-29T23:12:59.801Z,-5.57
2023-01-29T23:16:12.104Z,-5.63
2023-01-29T23:19:17.888Z,-5.68
2023-01-29T23:22:24.524Z,-5.60
2023-01-29T23:25:50.697Z,-5.66
2023-01-29T23:28:54.711Z,-5.63
2023-01-29T23:32:03.864Z,-5.69
2023-01-29T23:35:12.091Z,-5.87
2023-01-29T23:38:17.855Z,-5.69
2023-01-29T23:41:24.624Z,-5.77
2023-01-29T23:44:30.838Z,-5.83
2023-01-29T23:47:40.076Z,-5.97
2023-01-29T23:50:45.821Z,-6.09
2023-01-29T23:53:52.465Z,-6.05
2023-01-29T23:56:58.458Z,-6.02
